CST,Max TemperatureF,Mean TemperatureF,Min TemperatureF,Max Dew PointF,MeanDew PointF,Min DewpointF,Max Humidity, Mean Humidity, Min Humidity, Max Sea Level PressureIn, Mean Sea Level PressureIn, Min Sea Level PressureIn, Max VisibilityMiles, Mean VisibilityMiles, Min VisibilityMiles, Max Wind SpeedMPH, Mean Wind SpeedMPH, Max Gust SpeedMPH,PrecipitationIn, CloudCover, Events, WindDirDegrees
2013-2-1,46,36,26,32,21,12,86,57,31,30.50,30.40,30.26,10,10,10,10,6,17,0.00,0,,8
2013-2-2,59,44,28,46,31,18,100,71,45,30.34,30.23,30.14,10,9,0,16,4,23,0.01,2,Fog-Rain,201
2013-2-3,60,45,30,39,31,25,100,68,27,30.22,30.17,30.12,10,9,1,13,2,22,0.00,0,,289
2013-2-4,55,44,32,37,33,30,100,66,41,30.13,30.05,29.96,10,10,10,12,3,,0.00,2,,161
2013-2-5,59,49,39,54,45,37,100,88,66,30.07,30.01,29.95,10,7,0,6,1,,0.00,7,Fog-Rain,189
2013-2-6,66,50,33,48,42,34,100,80,43,30.20,30.11,30.03,10,6,0,9,1,,0.01,3,Fog-Rain,109
2013-2-7,64,57,50,54,51,46,100,85,68,30.07,29.96,29.90,10,10,3,10,6,17,0.00,6,Rain,102
2013-2-8,55,45,35,54,44,34,100,84,58,30.28,30.11,29.93,10,8,1,15,6,21,0.00,5,Rain,11
2013-2-9,59,44,30,37,33,28,100,69,36,30.30,30.22,30.12,10,9,4,13,5,,0.00,0,,94
2013-2-10,59,52,44,57,49,37,100,87,66,30.12,29.98,29.86,10,9,3,17,8,23,1.21,7,Rain-Thunderstorm,160
2013-2-11,59,52,44,57,49,43,100,94,71,30.20,30.12,30.00,10,8,0,7,1,,0.29,7,Fog-Rain,6
2013-2-12,46,44,41,45,41,37,100,91,71,30.16,29.97,29.79,10,8,2,13,4,17,1.27,7,Rain-Thunderstorm,64
2013-2-13,48,44,39,45,40,37,100,86,71,30.08,29.93,29.76,10,9,2,14,4,21,0.01,8,,282
2013-2-14,59,44,30,41,36,30,100,79,42,30.12,30.08,30.05,10,8,0,6,1,,0.00,0,Fog,255
2013-2-15,59,46,32,39,34,28,100,69,36,30.17,30.13,30.09,10,10,5,12,2,17,0.00,3,,329
2013-2-16,44,35,26,32,24,14,87,65,31,30.29,30.21,30.14,10,10,10,14,4,21,0.00,2,,312
2013-2-17,53,38,23,30,25,18,93,63,30,30.33,30.25,30.18,10,10,10,10,3,,0.00,3,,165
2013-2-18,62,48,33,48,39,32,94,68,45,30.22,30.08,29.91,10,10,3,21,9,32,0.63,4,Rain-Thunderstorm,161
2013-2-19,53,42,30,50,34,23,100,68,30,30.28,30.16,29.95,10,10,3,15,4,23,0.15,2,Rain,315
2013-2-20,41,34,28,30,25,18,100,67,42,30.32,30.24,30.14,10,10,10,14,3,21,0.00,3,Rain,31
2013-2-21,50,42,35,50,36,27,100,78,49,30.16,29.97,29.80,10,8,2,17,7,22,1.46,7,Rain-Thunderstorm,103
2013-2-22,62,53,44,54,48,43,100,86,48,30.06,29.98,29.91,10,6,0,8,1,,0.13,6,Fog-Rain-Thunderstorm,352
2013-2-23,55,45,33,46,40,34,100,85,58,30.01,29.97,29.92,10,10,7,7,3,,0.00,1,,349
2013-2-24,62,46,30,41,35,30,100,68,34,30.07,29.99,29.88,10,10,5,9,2,,0.00,0,,58
2013-2-25,59,54,48,54,46,36,100,77,58,29.88,29.69,29.44,10,10,2,21,9,31,0.43,7,Rain,103
2013-2-26,55,48,42,55,38,34,100,74,66,29.87,29.64,29.43,10,10,7,14,6,29,0.07,7,Rain,240
2013-2-27,59,46,32,37,34,30,100,72,36,30.01,29.94,29.88,10,10,5,15,3,22,0.00,1,,271
2013-2-28,51,40,30,32,31,28,100,73,44,30.10,30.06,29.98,10,10,7,13,4,20,0.00,3,,301